createdAt,value
2022-09-03T00:11:50.152Z,97689.06
2022-09-03T00:42:07.956Z,97680.03
2022-09-03T01:12:20.223Z,97669.91
2022-09-03T01:42:33.391Z,97675.84
2022-09-03T02:12:38.478Z,97673.75
2022-09-03T02:42:42.797Z,97667.59
2022-09-03T03:12:46.926Z,97658.97
2022-09-03T03:42:51.044Z,97655.75
2022-09-03T04:12:56.425Z,97652.28
2022-09-03T04:43:00.866Z,97647.84
2022-09-03T05:13:06.506Z,97650.56
2022-09-03T05:43:10.647Z,97667.59
2022-09-03T06:13:14.914Z,97685.81
2022-09-03T06:43:19.219Z,97691.34
2022-09-03T07:13:24.563Z,97701.84
2022-09-03T07:43:29.341Z,97691.78
2022-09-03T08:13:33.961Z,97724.41
2022-09-03T08:43:47.772Z,97746.06
2022-09-03T09:13:57.592Z,97753.81
2022-09-03T09:44:06.234Z,97749.44
2022-09-03T10:14:18.161Z,97756.94
2022-09-03T10:44:35.329Z,97765.72
2022-09-03T11:14:42.129Z,97744.75
2022-09-03T11:44:51.484Z,97715.94
2022-09-03T12:15:03.310Z,97707.94
2022-09-03T12:45:10.613Z,97694.69
2022-09-03T13:15:23.282Z,97689.44
2022-09-03T13:45:32.443Z,97702.31
2022-09-03T14:15:45.772Z,97694.28
2022-09-03T14:46:19.952Z,97684.16
2022-09-03T15:16:32.753Z,97688.50
2022-09-03T15:46:57.566Z,97726.94
2022-09-03T16:17:04.826Z,97732.88
2022-09-03T16:47:12.809Z,97762.97
2022-09-03T17:17:28.044Z,97775.16
2022-09-03T17:48:07.393Z,97765.97
2022-09-03T18:18:18.406Z,97769.78
2022-09-03T18:48:47.363Z,97813.38
2022-09-03T19:19:26.660Z,97835.75
2022-09-03T19:49:59.949Z,97873.13
2022-09-03T20:20:14.086Z,97897.88
2022-09-03T20:50:25.959Z,97907.47
2022-09-03T21:20:36.259Z,97919.53
2022-09-03T21:50:58.584Z,97935.31
2022-09-03T22:21:13.301Z,97935.06
2022-09-03T22:51:21.661Z,97944.41
2022-09-03T23:21:29.945Z,97960.69
2022-09-03T23:51:44.889Z,97992.94
